Time;durP1;ratioP1;P1;durP2;ratioP2;P2;SDS_P1;SDS_P2;PMS_P1;PMS_P2;Temp;Humidity;BMP_temperature;BMP_pressure;BME280_temperature;BME280_humidity;BME280_pressure;Samples;Min_cycle;Max_cycle;Signal;HPM_P1;HPM_P2
2024/02/18 00:02:22;;;;;;;12.05;5.75;;;;;;;-146.27;89.62;42331.44;5070695;28;20475;-72
2024/02/18 00:04:48;;;;;;;15.80;5.53;;;;;;;-146.27;90.17;42345.38;5071203;28;20034;-73
2024/02/18 00:07:14;;;;;;;12.63;5.13;;;;;;;-146.27;90.13;42339.41;5071400;28;20055;-74
2024/02/18 00:09:39;;;;;;;13.00;5.38;;;;;;;-146.27;90.70;42401.06;5070281;28;20074;-72
2024/02/18 00:12:05;;;;;;;9.88;4.78;;;;;;;-146.27;89.57;42345.38;5071388;28;20040;-72
2024/02/18 00:14:31;;;;;;;12.00;5.47;;;;;;;-146.27;88.87;42253.88;5071185;28;20081;-72
2024/02/18 00:16:56;;;;;;;18.33;5.55;;;;;;;-146.27;88.61;42269.78;5070338;28;20610;-72
2024/02/18 00:19:21;;;;;;;14.45;6.00;;;;;;;-146.27;88.35;42269.78;5070739;28;20465;-72
2024/02/18 00:21:47;;;;;;;9.48;5.13;;;;;;;-146.27;88.67;42321.50;5070703;28;20135;-72
2024/02/18 00:24:13;;;;;;;11.82;5.22;;;;;;;-146.27;89.62;42347.34;5071035;28;20137;-71
2024/02/18 00:26:39;;;;;;;12.32;5.72;;;;;;;-146.27;89.02;42281.72;5069542;28;20111;-72
2024/02/18 00:29:06;;;;;;;10.23;5.93;;;;;;;-146.27;88.99;42377.19;5069976;28;20179;-73
2024/02/18 00:31:31;;;;;;;13.65;5.28;;;;;;;-146.27;88.05;42259.84;5070236;28;20040;-72
2024/02/18 00:33:57;;;;;;;10.75;5.38;;;;;;;-146.27;88.20;42257.88;5066195;28;20101;-71
2024/02/18 00:36:22;;;;;;;11.85;5.65;;;;;;;-146.27;88.50;42285.72;5071322;28;20025;-71
2024/02/18 00:38:48;;;;;;;12.82;5.30;;;;;;;-146.27;87.81;42341.38;5071835;28;20029;-72
2024/02/18 00:41:13;;;;;;;10.80;5.25;;;;;;;-146.27;88.80;42273.78;5068200;28;20120;-71
2024/02/18 00:43:38;;;;;;;13.40;5.40;;;;;;;-146.27;87.84;42297.63;5070687;28;20436;-72
2024/02/18 00:46:04;;;;;;;8.98;5.00;;;;;;;-146.27;87.62;42329.47;5070784;28;20082;-71
2024/02/18 00:48:29;;;;;;;11.48;5.82;;;;;;;-146.27;88.78;42337.41;5070890;28;20056;-71
2024/02/18 00:50:55;;;;;;;9.55;5.38;;;;;;;-146.27;88.80;42341.38;5069770;28;20020;-72
2024/02/18 00:53:20;;;;;;;12.25;5.68;;;;;;;-146.27;88.29;42273.78;5070231;28;20444;-71
2024/02/18 00:55:46;;;;;;;13.45;5.07;;;;;;;-146.27;87.00;42307.56;5068195;28;20032;-71
2024/02/18 00:58:11;;;;;;;9.02;4.93;;;;;;;-146.27;87.70;42305.59;5070512;28;20059;-71
2024/02/18 01:00:39;;;;;;;20.25;5.05;;;;;;;-146.27;86.54;42253.88;5069768;28;20017;-71
2024/02/18 01:03:04;;;;;;;10.65;4.63;;;;;;;-146.27;87.51;42293.66;5069081;28;20115;-71
2024/02/18 01:05:30;;;;;;;8.30;4.63;;;;;;;-146.27;87.80;42319.50;5068667;28;20088;-74
2024/02/18 01:07:55;;;;;;;15.23;5.05;;;;;;;-146.27;86.83;42321.50;5070681;28;20472;-73
2024/02/18 01:10:20;;;;;;;9.57;4.05;;;;;;;-146.27;86.62;42295.66;5070400;28;20020;-75
2024/02/18 01:12:47;;;;;;;11.40;4.70;;;;;;;-146.27;86.24;42293.66;5066107;28;20029;-74
2024/02/18 01:15:12;;;;;;;7.70;4.03;;;;;;;-146.27;86.70;42349.34;5065825;28;20480;-73
2024/02/18 01:17:38;;;;;;;10.68;4.18;;;;;;;-146.27;87.24;42393.09;5069029;28;20101;-74
2024/02/18 01:20:05;;;;;;;10.23;4.32;;;;;;;-146.27;86.52;42273.78;5070553;28;20135;-74
2024/02/18 01:22:30;;;;;;;12.40;4.38;;;;;;;-146.27;86.24;42351.34;5071453;28;20025;-73
2024/02/18 01:24:56;;;;;;;8.70;4.18;;;;;;;-146.27;85.87;42305.59;5072476;28;20404;-74
2024/02/18 01:27:21;;;;;;;9.07;3.55;;;;;;;-146.27;85.69;42273.78;5068750;28;20028;-75
2024/02/18 01:29:47;;;;;;;11.30;3.38;;;;;;;-146.27;85.37;42313.53;5068825;28;20020;-73
2024/02/18 01:32:12;;;;;;;6.75;3.90;;;;;;;-146.27;84.80;42311.56;5070636;28;20024;-73
2024/02/18 01:34:38;;;;;;;8.70;3.55;;;;;;;-146.27;85.20;42349.34;5069525;28;20028;-74
2024/02/18 01:37:03;;;;;;;8.15;3.35;;;;;;;-146.27;85.44;42401.06;5070374;28;20031;-74
2024/02/18 01:39:29;;;;;;;9.80;3.75;;;;;;;-146.27;84.42;42263.81;5068783;28;20031;-74
2024/02/18 01:41:54;;;;;;;11.93;3.22;;;;;;;-146.27;85.04;42313.53;5070631;28;20031;-74
2024/02/18 01:44:20;;;;;;;8.48;3.83;;;;;;;-146.27;85.67;42373.22;5069765;28;20396;-74
2024/02/18 01:46:45;;;;;;;7.70;3.30;;;;;;;-146.27;86.38;42399.06;5067126;28;20024;-74
2024/02/18 01:49:12;;;;;;;12.75;3.15;;;;;;;-146.27;86.62;42341.38;5069258;28;20024;-74
2024/02/18 01:51:38;;;;;;;5.15;3.58;;;;;;;-146.27;88.10;42412.97;5069457;28;20040;-74
2024/02/18 01:54:05;;;;;;;8.25;2.90;;;;;;;-146.27;88.32;42436.84;5066820;28;20021;-74
2024/02/18 01:56:31;;;;;;;9.07;3.42;;;;;;;-146.27;87.86;42381.16;5068051;28;20047;-74
2024/02/18 01:58:57;;;;;;;7.70;3.17;;;;;;;-146.27;90.41;42472.66;5066829;28;20025;-74
2024/02/18 02:01:22;;;;;;;10.57;3.10;;;;;;;-146.27;89.32;42448.78;5063952;28;20020;-74
2024/02/18 02:03:49;;;;;;;11.38;3.47;;;;;;;-146.27;90.48;42432.88;5066388;28;20020;-73
2024/02/18 02:06:16;;;;;;;13.25;3.22;;;;;;;-146.27;90.92;42520.38;5078170;28;20169;-74
2024/02/18 02:08:41;;;;;;;14.70;3.22;;;;;;;-146.27;91.50;42496.50;5068030;28;20028;-74
2024/02/18 02:11:08;;;;;;;10.32;4.00;;;;;;;-146.27;92.15;42508.44;5066313;28;20020;-74
2024/02/18 02:13:33;;;;;;;12.95;4.22;;;;;;;-146.27;91.94;42532.31;5069349;28;20094;-74
2024/02/18 02:15:59;;;;;;;12.02;3.30;;;;;;;-146.27;91.82;42424.91;5067524;28;20056;-72
2024/02/18 02:18:24;;;;;;;8.15;2.97;;;;;;;-146.27;91.53;42518.38;5066700;28;20024;-71
2024/02/18 02:20:49;;;;;;;11.48;3.50;;;;;;;-146.27;91.56;42424.91;5068576;28;20492;-72
2024/02/18 02:23:15;;;;;;;13.23;3.95;;;;;;;-146.27;92.76;42528.31;5069166;28;20513;-72
2024/02/18 02:25:42;;;;;;;10.20;2.90;;;;;;;-146.27;92.30;42490.53;5070578;28;20044;-72
2024/02/18 02:28:24;;;;;;;12.38;3.35;;;;;;;-146.27;91.57;42389.13;5073809;28;20032;-72
2024/02/18 02:30:50;;;;;;;11.38;4.20;;;;;;;-146.27;92.79;42474.63;5067554;28;20432;-71
2024/02/18 02:33:17;;;;;;;7.80;3.90;;;;;;;-146.27;92.30;42454.75;5070047;28;20032;-72
2024/02/18 02:35:43;;;;;;;9.75;3.65;;;;;;;-146.27;92.09;42472.66;5073010;28;20032;-72
2024/02/18 02:38:09;;;;;;;7.30;3.72;;;;;;;-146.27;91.84;42409.00;5066826;28;20070;-72
2024/02/18 02:40:34;;;;;;;11.27;3.90;;;;;;;-146.27;92.52;42466.69;5065523;28;20628;-72
2024/02/18 02:43:01;;;;;;;9.88;4.40;;;;;;;-146.27;92.51;42488.56;5068325;28;20440;-71
2024/02/18 02:45:26;;;;;;;8.85;4.10;;;;;;;-146.27;92.00;42440.81;5066492;28;20218;-71
2024/02/18 02:47:52;;;;;;;9.02;4.15;;;;;;;-146.27;93.49;42504.47;5071727;28;20035;-70
2024/02/18 02:50:18;;;;;;;10.95;4.03;;;;;;;-146.27;93.42;42420.94;5069060;28;20024;-72
2024/02/18 02:52:44;;;;;;;15.63;4.13;;;;;;;-146.27;92.78;42395.09;5071371;28;20029;-72
2024/02/18 02:55:10;;;;;;;9.95;3.65;;;;;;;-146.27;93.21;42542.25;5069688;28;20499;-72
2024/02/18 02:57:35;;;;;;;13.77;4.00;;;;;;;-146.27;93.08;42512.41;5062512;28;20055;-72
2024/02/18 03:00:08;;;;;;;7.25;3.60;;;;;;;-146.27;94.46;42589.97;5067913;28;20067;-70
2024/02/18 03:02:38;;;;;;;8.95;4.85;;;;;;;-146.27;93.72;42496.50;5072702;28;20388;-69
2024/02/18 03:05:07;;;;;;;10.43;3.85;;;;;;;-146.27;92.19;42367.25;5066872;28;20365;-71
2024/02/18 03:07:33;;;;;;;11.65;4.30;;;;;;;-146.27;92.03;42424.91;5067802;28;20024;-71
2024/02/18 03:09:58;;;;;;;9.20;3.85;;;;;;;-146.27;92.61;42508.44;5070680;28;20313;-72
2024/02/18 03:12:24;;;;;;;12.77;3.83;;;;;;;-146.27;93.14;42520.38;5065080;28;20025;-72
2024/02/18 03:14:50;;;;;;;15.65;4.05;;;;;;;-146.27;92.39;42480.59;5069301;28;20028;-70
2024/02/18 03:17:15;;;;;;;11.85;3.50;;;;;;;-146.27;92.74;42470.66;5067748;28;20029;-71
2024/02/18 03:19:40;;;;;;;11.65;4.18;;;;;;;-146.27;93.27;42580.03;5066587;28;20020;-72
2024/02/18 03:22:06;;;;;;;12.45;3.30;;;;;;;-146.27;92.33;42480.59;5069509;28;20067;-72
2024/02/18 03:24:31;;;;;;;12.05;3.13;;;;;;;-146.27;92.15;42532.31;5067702;28;20546;-72
2024/02/18 03:26:57;;;;;;;9.02;3.05;;;;;;;-146.27;92.52;42558.16;5068947;28;20036;-74
2024/02/18 03:29:23;;;;;;;8.48;3.72;;;;;;;-146.27;92.14;42484.56;5069013;28;20078;-74
2024/02/18 03:31:55;;;;;;;7.70;3.10;;;;;;;-146.27;91.57;42460.72;5084914;28;20046;-74
2024/02/18 03:34:21;;;;;;;7.53;3.13;;;;;;;-146.27;91.50;42506.44;5069971;28;20066;-74
2024/02/18 03:36:46;;;;;;;6.70;2.80;;;;;;;-146.27;91.09;42532.31;5064517;28;20060;-74
2024/02/18 03:39:11;;;;;;;11.35;4.32;;;;;;;-146.27;90.70;42480.59;5078127;28;20028;-73
2024/02/18 03:41:37;;;;;;;11.45;3.60;;;;;;;-146.27;90.40;42576.06;5077127;28;22498;-74
2024/02/18 03:44:02;;;;;;;7.65;2.90;;;;;;;-146.27;90.26;42595.94;5065256;28;20055;-73
2024/02/18 03:46:28;;;;;;;14.20;3.33;;;;;;;-146.27;90.60;42584.00;5075312;28;20385;-74
2024/02/18 03:48:53;;;;;;;8.38;3.15;;;;;;;-146.27;90.53;42657.59;5070616;28;20514;-73
2024/02/18 03:51:18;;;;;;;8.65;2.97;;;;;;;-146.27;90.76;42595.94;5064943;28;20040;-74
2024/02/18 03:53:43;;;;;;;9.48;3.05;;;;;;;-146.27;90.84;42613.84;5071399;28;20110;-74
2024/02/18 03:56:09;;;;;;;9.45;2.75;;;;;;;-146.27;90.66;42623.78;5071755;28;20599;-73
2024/02/18 03:58:35;;;;;;;12.27;3.20;;;;;;;-146.27;89.98;42556.16;5069904;28;20124;-75
2024/02/18 04:01:00;;;;;;;11.00;3.10;;;;;;;-146.27;90.07;42580.03;5070166;28;20020;-74
2024/02/18 04:03:26;;;;;;;8.82;2.97;;;;;;;-146.27;90.25;42667.53;5070919;28;20054;-74
2024/02/18 04:05:51;;;;;;;11.07;3.42;;;;;;;-146.27;91.55;42717.25;5071133;28;20586;-74
2024/02/18 04:08:16;;;;;;;9.27;2.90;;;;;;;-146.27;90.96;42659.59;5071388;28;20533;-74
2024/02/18 04:10:43;;;;;;;8.35;3.13;;;;;;;-146.27;90.55;42633.72;5074832;28;20473;-74
2024/02/18 04:13:08;;;;;;;9.10;2.85;;;;;;;-146.27;90.77;42671.53;5070533;28;20032;-74
2024/02/18 04:15:34;;;;;;;6.45;3.00;;;;;;;-146.27;91.01;42653.63;5072595;28;20441;-74
2024/02/18 04:17:59;;;;;;;9.27;2.92;;;;;;;-146.27;90.86;42663.56;5070956;28;20063;-74
2024/02/18 04:20:24;;;;;;;9.20;3.20;;;;;;;-146.27;91.94;42770.97;5072307;28;20020;-74
2024/02/18 04:22:50;;;;;;;10.93;2.63;;;;;;;-146.27;91.23;42677.50;5070878;28;20123;-73
2024/02/18 04:25:15;;;;;;;10.43;3.97;;;;;;;-146.27;90.63;42637.72;5071367;28;20611;-74
2024/02/18 04:27:41;;;;;;;11.98;3.38;;;;;;;-146.27;90.80;42721.25;5069360;28;20032;-73
2024/02/18 04:30:07;;;;;;;8.48;2.80;;;;;;;-146.27;91.52;42719.25;5071164;28;20036;-74
2024/02/18 04:32:32;;;;;;;5.80;3.17;;;;;;;-146.27;90.41;42657.59;5068418;28;20039;-74
2024/02/18 04:34:58;;;;;;;12.60;4.80;;;;;;;-146.27;90.06;42659.59;5070625;28;20021;-74
2024/02/18 04:37:23;;;;;;;12.13;2.55;;;;;;;-146.27;91.25;42786.88;5070381;28;20039;-73
2024/02/18 04:39:48;;;;;;;9.82;3.17;;;;;;;-146.27;90.57;42667.53;5071313;28;20358;-75
2024/02/18 04:42:14;;;;;;;15.48;4.13;;;;;;;-146.27;90.06;42615.84;5070406;28;20517;-74
2024/02/18 04:44:39;;;;;;;11.27;3.40;;;;;;;-146.27;89.76;42597.94;5069520;28;20111;-74
2024/02/18 04:47:04;;;;;;;10.35;3.38;;;;;;;-146.27;89.56;42631.75;5071032;28;20077;-74
2024/02/18 04:49:30;;;;;;;12.95;3.85;;;;;;;-146.27;90.10;42715.28;5070771;28;20077;-74
2024/02/18 04:51:55;;;;;;;9.27;3.53;;;;;;;-146.27;89.88;42663.56;5070584;28;20029;-74
2024/02/18 04:54:21;;;;;;;11.70;2.90;;;;;;;-146.27;90.23;42733.19;5069800;28;20035;-73
2024/02/18 04:56:46;;;;;;;12.45;3.80;;;;;;;-146.27;90.26;42687.44;5069871;28;20779;-74
2024/02/18 04:59:11;;;;;;;12.13;3.33;;;;;;;-146.27;90.67;42731.19;5070165;28;20141;-74
2024/02/18 05:01:37;;;;;;;7.70;3.38;;;;;;;-146.27;90.82;42705.34;5070243;28;20113;-74
2024/02/18 05:04:02;;;;;;;9.70;3.50;;;;;;;-146.27;91.48;42834.59;5068314;28;20024;-74
2024/02/18 05:06:27;;;;;;;18.60;4.10;;;;;;;-146.27;91.82;42772.97;5068684;28;20032;-74
2024/02/18 05:08:53;;;;;;;8.02;3.63;;;;;;;-146.27;92.14;42834.59;5068466;28;20258;-74
2024/02/18 05:11:18;;;;;;;19.58;3.42;;;;;;;-146.27;91.77;42776.94;5070469;28;20033;-74
2024/02/18 05:13:43;;;;;;;12.50;3.38;;;;;;;-146.27;91.07;42739.16;5067408;28;20031;-74
2024/02/18 05:16:09;;;;;;;15.43;3.92;;;;;;;-146.27;92.64;42876.38;5070794;28;20032;-74
2024/02/18 05:18:34;;;;;;;12.88;3.85;;;;;;;-146.27;91.85;42739.16;5074681;28;20050;-74
2024/02/18 05:21:03;;;;;;;12.02;3.65;;;;;;;-146.27;93.54;42814.72;5074261;28;20023;-74
2024/02/18 05:23:29;;;;;;;9.93;3.35;;;;;;;-146.27;93.85;42872.41;5067620;28;20123;-73
2024/02/18 05:25:55;;;;;;;11.15;3.55;;;;;;;-146.27;93.25;42826.66;5067394;28;20114;-74
2024/02/18 05:28:20;;;;;;;10.82;4.05;;;;;;;-146.27;92.49;42753.06;5068119;28;20035;-74
2024/02/18 05:30:46;;;;;;;12.60;3.45;;;;;;;-146.27;93.22;42759.03;5068438;28;20032;-73
2024/02/18 05:33:11;;;;;;;12.27;3.95;;;;;;;-146.27;93.90;42876.38;5061121;28;20028;-73
2024/02/18 05:35:36;;;;;;;13.38;3.97;;;;;;;-146.27;93.63;42745.09;5069772;28;20366;-74
2024/02/18 05:38:02;;;;;;;12.70;3.70;;;;;;;-146.27;95.25;42870.41;5069508;28;20028;-74
2024/02/18 05:40:28;;;;;;;12.65;3.85;;;;;;;-146.27;95.55;42926.09;5070362;28;20028;-74
2024/02/18 05:42:53;;;;;;;17.48;4.03;;;;;;;-146.27;95.12;42814.72;5069805;28;20085;-74
2024/02/18 05:45:22;;;;;;;12.57;3.95;;;;;;;-146.27;95.44;42874.38;5067063;28;20123;-74
2024/02/18 05:47:47;;;;;;;12.05;4.55;;;;;;;-146.27;95.34;42782.91;5068679;28;20028;-71
2024/02/18 05:50:13;;;;;;;14.88;4.63;;;;;;;-146.27;94.51;42790.84;5068731;28;20028;-72
2024/02/18 05:52:39;;;;;;;13.73;4.63;;;;;;;-146.27;94.54;42743.13;5065978;28;20127;-71
2024/02/18 05:55:05;;;;;;;14.10;4.68;;;;;;;-146.27;94.41;42751.06;5068559;28;20020;-72
2024/02/18 05:57:30;;;;;;;14.50;4.53;;;;;;;-146.27;93.92;42765.00;5068243;28;20146;-72
2024/02/18 05:59:55;;;;;;;9.82;3.80;;;;;;;-146.27;95.12;42802.78;5069346;28;20020;-71
2024/02/18 06:02:21;;;;;;;13.30;3.92;;;;;;;-146.27;95.58;42904.22;5067642;28;20035;-72
2024/02/18 06:04:47;;;;;;;13.20;4.07;;;;;;;-146.27;96.06;42858.47;5066775;28;20035;-71
2024/02/18 06:07:12;;;;;;;10.27;4.32;;;;;;;-146.27;94.96;42741.13;5071019;28;20044;-72
2024/02/18 06:09:38;;;;;;;9.30;3.88;;;;;;;-146.27;95.10;42842.56;5068426;28;20093;-72
2024/02/18 06:12:03;;;;;;;17.23;4.65;;;;;;;-146.27;94.83;42792.84;5068530;28;20028;-71
2024/02/18 06:14:29;;;;;;;9.68;4.10;;;;;;;-146.27;94.64;42794.84;5067202;28;20055;-71
2024/02/18 06:16:54;;;;;;;17.00;5.13;;;;;;;-146.27;95.56;42884.34;5070970;28;20103;-71
2024/02/18 06:19:19;;;;;;;12.43;4.53;;;;;;;-146.27;95.13;42814.72;5068258;28;20024;-72
2024/02/18 06:21:45;;;;;;;9.30;4.25;;;;;;;-146.27;95.01;42828.66;5069300;28;20487;-73
2024/02/18 06:24:10;;;;;;;10.80;4.22;;;;;;;-146.27;94.88;42830.63;5066303;28;20110;-73
2024/02/18 06:26:40;;;;;;;13.80;4.47;;;;;;;-146.27;94.95;42802.78;5067608;28;20087;-72
2024/02/18 06:29:05;;;;;;;9.20;4.43;;;;;;;-146.27;94.72;42770.97;5064676;28;20094;-72
2024/02/18 06:31:30;;;;;;;10.65;3.90;;;;;;;-146.27;95.44;42792.84;5061794;28;20484;-73
2024/02/18 06:33:56;;;;;;;16.85;4.53;;;;;;;-146.27;94.29;42757.03;5067401;28;20108;-72
2024/02/18 06:36:21;;;;;;;7.70;4.00;;;;;;;-146.27;95.40;42898.25;5069010;28;20089;-73
2024/02/18 06:38:47;;;;;;;11.73;4.20;;;;;;;-146.27;95.14;42814.72;5067588;28;20078;-72
2024/02/18 06:41:13;;;;;;;18.58;4.80;;;;;;;-146.27;94.77;42790.84;5067557;28;20021;-72
2024/02/18 06:43:39;;;;;;;9.10;3.92;;;;;;;-146.27;95.85;42836.59;5066494;28;20032;-72
2024/02/18 06:46:04;;;;;;;12.13;3.80;;;;;;;-146.27;95.56;42786.88;5068037;28;20036;-72
2024/02/18 06:48:30;;;;;;;14.32;3.70;;;;;;;-146.27;96.26;42850.53;5067929;28;20035;-72
2024/02/18 06:50:56;;;;;;;8.80;3.72;;;;;;;-146.27;96.11;42834.59;5063951;28;20047;-72
2024/02/18 06:53:22;;;;;;;15.23;4.13;;;;;;;-146.27;96.05;42834.59;5066945;28;20040;-72
2024/02/18 06:55:47;;;;;;;9.68;3.17;;;;;;;-146.27;95.85;42816.72;5067828;28;20683;-73
2024/02/18 06:58:14;;;;;;;12.88;4.22;;;;;;;-146.27;95.39;42802.78;5067798;28;20392;-72
2024/02/18 07:00:40;;;;;;;14.15;4.05;;;;;;;-146.27;96.24;42784.88;5066617;28;20040;-74
2024/02/18 07:03:06;;;;;;;7.72;3.22;;;;;;;-146.27;95.73;42866.44;5066741;28;20107;-73
2024/02/18 07:05:32;;;;;;;11.90;3.92;;;;;;;-146.27;96.46;42826.66;5072066;28;20095;-74
2024/02/18 07:07:58;;;;;;;11.25;4.28;;;;;;;-146.27;95.93;42834.59;5072085;28;20047;-72
2024/02/18 07:10:23;;;;;;;15.50;3.53;;;;;;;-146.27;96.45;42846.53;5071948;28;20017;-72
2024/02/18 07:12:49;;;;;;;12.23;3.40;;;;;;;-146.27;96.18;42830.63;5069564;28;20040;-73
2024/02/18 07:15:14;;;;;;;8.63;3.33;;;;;;;-146.27;95.31;42770.97;5072812;28;20437;-72
2024/02/18 07:17:41;;;;;;;15.77;4.18;;;;;;;-146.27;94.80;42751.06;5070656;28;20032;-73
2024/02/18 07:20:07;;;;;;;9.70;3.67;;;;;;;-146.27;96.54;42890.31;5072166;28;20028;-72
2024/02/18 07:22:32;;;;;;;8.30;3.70;;;;;;;-146.27;97.17;42838.59;5082244;28;20025;-73
2024/02/18 07:24:58;;;;;;;14.48;3.63;;;;;;;-146.27;96.26;42763.00;5072477;28;20488;-73
2024/02/18 07:27:24;;;;;;;11.23;3.90;;;;;;;-146.27;96.49;42830.63;5070505;28;20410;-72
2024/02/18 07:29:51;;;;;;;19.42;4.05;;;;;;;-146.27;95.65;42770.97;5065620;28;20013;-73
2024/02/18 07:32:16;;;;;;;12.80;4.03;;;;;;;-146.27;96.60;42850.53;5066086;28;20040;-73
2024/02/18 07:34:42;;;;;;;10.80;3.63;;;;;;;-146.27;97.51;42822.69;5071993;28;20114;-72
2024/02/18 07:37:07;;;;;;;9.88;3.80;;;;;;;-146.27;96.42;42761.03;5072978;28;20032;-72
2024/02/18 07:39:33;;;;;;;14.25;3.85;;;;;;;-146.27;96.54;42755.06;5073134;28;20020;-71
2024/02/18 07:41:58;;;;;;;14.48;3.67;;;;;;;-146.27;96.51;42753.06;5071482;28;20476;-71
2024/02/18 07:44:24;;;;;;;13.57;3.83;;;;;;;-146.27;97.36;42844.56;5072848;28;20438;-73
2024/02/18 07:46:49;;;;;;;16.65;3.70;;;;;;;-146.27;97.83;42874.38;5072801;28;20459;-71
2024/02/18 07:49:15;;;;;;;10.57;3.67;;;;;;;-146.27;98.22;42878.38;5072045;28;20020;-73
2024/02/18 07:51:42;;;;;;;12.68;3.72;;;;;;;-146.27;96.60;42747.09;5069808;28;20054;-72
2024/02/18 07:54:07;;;;;;;13.27;4.07;;;;;;;-146.27;96.84;42774.94;5070435;28;20021;-72
2024/02/18 07:56:40;;;;;;;12.15;4.28;;;;;;;-146.27;96.30;42910.19;5072580;28;20020;-72
2024/02/18 07:59:06;;;;;;;12.40;4.00;;;;;;;-146.27;96.31;42751.06;5083181;28;20035;-73
2024/02/18 08:01:31;;;;;;;12.82;4.03;;;;;;;-146.27;96.54;42765.00;5067511;28;20016;-73
2024/02/18 08:03:56;;;;;;;12.27;3.45;;;;;;;-146.27;97.03;42908.19;5073985;28;20024;-72
2024/02/18 08:06:22;;;;;;;10.63;3.78;;;;;;;-146.27;97.85;42862.47;5069844;28;20023;-75
2024/02/18 08:08:47;;;;;;;13.25;3.70;;;;;;;-146.27;97.79;42844.56;5068564;28;20110;-75
2024/02/18 08:11:12;;;;;;;14.70;4.55;;;;;;;-146.27;97.11;42818.69;5073723;28;20035;-74
2024/02/18 08:13:38;;;;;;;16.77;4.25;;;;;;;-146.27;96.81;42794.84;5070879;28;20048;-74
2024/02/18 08:16:03;;;;;;;13.98;3.92;;;;;;;-146.27;96.96;42886.31;5067950;28;20020;-75
2024/02/18 08:18:29;;;;;;;7.93;3.58;;;;;;;-146.27;97.77;42874.38;5073358;28;20111;-74
2024/02/18 08:20:54;;;;;;;7.07;4.50;;;;;;;-146.27;98.43;42878.38;5077743;28;20126;-75
2024/02/18 08:23:19;;;;;;;12.80;4.78;;;;;;;-146.27;97.86;42870.41;5078998;28;20139;-74
2024/02/18 08:25:45;;;;;;;8.18;3.72;;;;;;;-146.27;97.38;42906.22;5082060;28;20100;-74
2024/02/18 08:28:12;;;;;;;16.17;4.57;;;;;;;-146.27;98.40;42955.94;5079083;28;20499;-75
2024/02/18 08:30:37;;;;;;;16.00;4.15;;;;;;;-146.27;98.30;42850.53;5076079;28;20024;-75
2024/02/18 08:33:03;;;;;;;13.57;5.03;;;;;;;-146.27;98.28;42890.31;5080037;28;20112;-75
2024/02/18 08:35:28;;;;;;;7.25;4.22;;;;;;;-146.27;97.62;42862.47;5095958;27;20081;-73
2024/02/18 08:37:54;;;;;;;11.70;4.10;;;;;;;-146.27;97.96;42918.16;5074205;28;20125;-75
2024/02/18 08:40:19;;;;;;;15.95;4.47;;;;;;;-146.27;98.62;42997.72;5064665;28;20031;-75
2024/02/18 08:42:44;;;;;;;13.45;4.28;;;;;;;-146.27;98.79;42953.94;5078547;28;20021;-75
2024/02/18 08:45:10;;;;;;;11.48;5.20;;;;;;;-146.27;97.86;42918.16;5067172;28;20029;-75
2024/02/18 08:47:36;;;;;;;8.15;4.15;;;;;;;-146.27;97.78;42930.09;5069249;28;20028;-75
2024/02/18 08:50:02;;;;;;;15.63;4.55;;;;;;;-146.27;98.65;42957.94;5073050;28;20064;-75
2024/02/18 08:52:28;;;;;;;8.82;4.05;;;;;;;-146.27;98.14;42961.91;5071944;28;20029;-75
2024/02/18 08:54:53;;;;;;;11.55;5.25;;;;;;;-146.27;98.20;43003.69;5071032;28;20090;-75
2024/02/18 08:57:19;;;;;;;11.68;4.32;;;;;;;-146.27;97.51;42946.00;5086241;28;20071;-75
2024/02/18 08:59:44;;;;;;;9.45;4.20;;;;;;;-146.27;99.11;43140.91;5068153;28;20020;-74
2024/02/18 09:02:10;;;;;;;10.00;4.93;;;;;;;-146.27;98.50;43067.31;5068464;28;20148;-74
2024/02/18 09:04:36;;;;;;;12.38;4.40;;;;;;;-146.27;98.65;42989.75;5069622;28;20648;-74
2024/02/18 09:07:02;;;;;;;11.25;4.85;;;;;;;-146.27;99.08;42961.91;5067662;28;20089;-74
2024/02/18 09:09:27;;;;;;;14.32;4.70;;;;;;;-146.27;98.48;43077.28;5073349;28;20020;-74
2024/02/18 09:11:53;;;;;;;10.35;4.03;;;;;;;-146.27;98.88;43136.94;5087929;28;20038;-74
2024/02/18 09:14:18;;;;;;;12.45;4.72;;;;;;;-146.27;98.92;43025.56;5072303;28;20112;-74
2024/02/18 09:16:44;;;;;;;10.32;4.57;;;;;;;-146.27;98.32;43033.50;5074748;28;20025;-75
2024/02/18 09:19:09;;;;;;;13.02;4.75;;;;;;;-146.27;97.80;43031.53;5072694;28;20079;-74
2024/02/18 09:21:34;;;;;;;14.20;4.35;;;;;;;-146.27;99.73;43192.63;5070511;28;20366;-74
2024/02/18 09:24:00;;;;;;;15.30;6.10;;;;;;;-146.27;99.99;43109.09;5069811;28;20039;-75
2024/02/18 09:26:25;;;;;;;16.10;5.70;;;;;;;-146.27;98.90;43069.31;5069887;28;20043;-75
2024/02/18 09:28:52;;;;;;;14.18;5.25;;;;;;;-146.27;99.24;43063.34;5070373;28;20098;-75
2024/02/18 09:31:18;;;;;;;16.45;4.85;;;;;;;-146.27;99.17;43121.03;5069854;28;20032;-76
2024/02/18 09:33:44;;;;;;;18.50;6.40;;;;;;;-146.27;99.05;43033.50;5070192;28;20102;-74
2024/02/18 09:36:10;;;;;;;18.25;6.18;;;;;;;-146.27;97.67;43001.69;5073721;28;20545;-75
2024/02/18 09:38:38;;;;;;;14.75;5.95;;;;;;;-146.27;97.08;42969.84;5068140;28;20020;-75
2024/02/18 09:41:03;;;;;;;14.63;5.88;;;;;;;-146.27;98.52;43011.63;5067006;28;20032;-76
2024/02/18 09:43:38;;;;;;;11.63;5.75;;;;;;;-146.27;98.15;43069.31;5065093;28;20396;-75
2024/02/18 09:46:05;;;;;;;16.40;5.38;;;;;;;-146.27;98.76;43071.31;5075318;28;20069;-75
2024/02/18 09:48:35;;;;;;;14.23;6.03;;;;;;;-146.27;97.94;42989.75;5074663;28;20052;-76
2024/02/18 09:51:00;;;;;;;12.68;5.60;;;;;;;-146.27;98.25;43071.31;5068411;28;20029;-75
2024/02/18 09:53:26;;;;;;;12.63;6.25;;;;;;;-146.27;98.15;43001.69;5067899;28;20039;-74
2024/02/18 09:55:52;;;;;;;14.65;5.35;;;;;;;-146.27;100.00;43182.69;5072761;28;20506;-75
2024/02/18 09:58:20;;;;;;;13.45;6.25;;;;;;;-146.27;98.66;43025.56;5071387;28;20032;-74
2024/02/18 10:00:49;;;;;;;19.02;6.47;;;;;;;-146.27;98.23;43035.50;5070276;28;20025;-75
2024/02/18 10:03:15;;;;;;;13.38;5.85;;;;;;;-146.27;98.64;43033.50;5061740;28;20070;-75
2024/02/18 10:05:40;;;;;;;13.57;5.82;;;;;;;-146.27;98.74;42965.88;5050878;28;20265;-74
2024/02/18 10:08:21;;;;;;;22.50;6.45;;;;;;;-146.27;100.00;43045.44;5053103;28;20036;-75
2024/02/18 10:10:47;;;;;;;16.83;6.97;;;;;;;-146.27;98.71;43001.69;5061086;28;20493;-74
2024/02/18 10:13:12;;;;;;;11.68;6.53;;;;;;;-146.27;100.00;43027.53;5067015;28;20039;-74
2024/02/18 10:15:38;;;;;;;13.60;6.65;;;;;;;-146.27;99.51;43003.69;5074184;28;20055;-74
2024/02/18 10:18:05;;;;;;;12.63;5.72;;;;;;;-146.27;100.00;43101.13;5076153;28;20048;-74
2024/02/18 10:20:30;;;;;;;18.27;6.47;;;;;;;-146.27;100.00;42977.81;5067319;28;20107;-74
2024/02/18 10:22:56;;;;;;;12.10;5.80;;;;;;;-146.27;99.69;43017.59;5065704;28;20100;-74
2024/02/18 10:25:22;;;;;;;17.88;6.25;;;;;;;-146.27;99.57;43017.59;5070083;28;20072;-75
2024/02/18 10:27:47;;;;;;;12.02;5.85;;;;;;;-146.27;100.00;43011.63;5067887;28;20087;-75
2024/02/18 10:30:13;;;;;;;12.40;5.70;;;;;;;-146.27;100.00;42985.78;5063356;28;20480;-74
2024/02/18 10:32:54;;;;;;;9.63;5.22;;;;;;;-146.27;100.00;42989.75;5065471;28;20020;-76
2024/02/18 10:35:22;;;;;;;12.45;5.70;;;;;;;-146.27;99.78;42922.13;5065843;28;20389;-74
2024/02/18 10:38:03;;;;;;;10.02;5.35;;;;;;;-146.27;99.49;42981.78;5068797;28;20028;-76
2024/02/18 10:40:37;;;;;;;4.38;3.88;;;;;;;-146.27;100.00;43041.47;5068438;28;20028;-75
2024/02/18 10:43:04;;;;;;;9.27;4.72;;;;;;;-146.27;99.98;42973.84;5069245;28;20108;-76
2024/02/18 10:45:36;;;;;;;6.35;3.90;;;;;;;-146.27;98.86;42902.22;5066015;28;20036;-77
2024/02/18 10:48:15;;;;;;;6.13;3.78;;;;;;;-146.27;99.65;42975.81;5066909;28;20112;-75
2024/02/18 10:50:54;;;;;;;8.20;3.85;;;;;;;-146.27;99.46;42969.84;5068685;28;20497;-76
2024/02/18 10:54:06;;;;;;;9.35;4.35;;;;;;;-146.27;99.49;42926.09;5069607;28;20028;-75
2024/02/18 10:56:37;;;;;;;6.35;3.33;;;;;;;-146.27;100.00;43017.59;5068521;28;20619;-76
2024/02/18 10:59:34;;;;;;;6.22;3.97;;;;;;;-146.27;100.00;42977.81;5071643;28;20048;-76
2024/02/18 11:02:07;;;;;;;5.55;3.90;;;;;;;-146.27;100.00;42949.97;5069956;28;20082;-74
2024/02/18 11:04:33;;;;;;;6.45;4.10;;;;;;;-146.27;99.76;42908.19;5070617;28;20028;-76
2024/02/18 11:07:00;;;;;;;5.65;4.15;;;;;;;-146.27;99.07;42834.59;5070027;28;20051;-75
2024/02/18 11:09:27;;;;;;;7.60;4.32;;;;;;;-146.27;100.00;42894.28;5074400;28;20044;-75